Time;durP1;ratioP1;P1;durP2;ratioP2;P2;SDS_P1;SDS_P2;PMS_P1;PMS_P2;Temp;Humidity;BMP_temperature;BMP_pressure;BME280_temperature;BME280_humidity;BME280_pressure;Samples;Min_cycle;Max_cycle;Signal;HPM_P1;HPM_P2
2022/02/22 00:00:22;;;;;;;;;;;;;;;5.85;59.98;96765.62;1724379;82;20238;-85
2022/02/22 00:02:55;;;;;;;;;;;;;;;5.85;60.08;96773.41;1731403;82;20566;-84
2022/02/22 00:05:21;;;;;;;;;;;;;;;5.85;60.16;96775.53;1716630;82;22063;-84
2022/02/22 00:07:48;;;;;;;;;;;;;;;5.86;60.24;96770.70;1717123;82;26039;-86
2022/02/22 00:10:15;;;;;;;;;;;;;;;5.87;60.32;96767.19;1723590;82;24297;-86
2022/02/22 00:12:42;;;;;;;;;;;;;;;5.87;60.42;96778.05;1725653;82;20218;-85
2022/02/22 00:15:08;;;;;;;;;;;;;;;5.87;60.52;96772.39;1736001;82;24755;-85
2022/02/22 00:17:38;;;;;;;;;;;;;;;5.89;60.57;96777.47;1732554;82;21865;-85
2022/02/22 00:20:03;;;;;;;;;;;;;;;5.90;60.68;96772.60;1727889;82;26230;-83
2022/02/22 00:22:29;;;;;;;;;;;;;;;5.88;60.74;96778.41;1725601;81;24526;-88
2022/02/22 00:25:02;;;;;;;;;;;;;;;5.87;60.81;96774.16;1722111;82;20372;-87
2022/02/22 00:27:28;;;;;;;;;;;;;;;5.86;60.87;96778.48;1731954;82;24846;-86
2022/02/22 00:29:54;;;;;;;;;;;;;;;5.87;60.95;96781.94;1721032;82;22020;-86
2022/02/22 00:32:21;;;;;;;;;;;;;;;5.85;61.01;96787.68;1716458;82;26621;-86
2022/02/22 00:34:48;;;;;;;;;;;;;;;5.83;61.05;96786.52;1717831;82;24539;-86
2022/02/22 00:37:14;;;;;;;;;;;;;;;5.80;61.09;96789.80;1726054;82;20364;-86
2022/02/22 00:39:40;;;;;;;;;;;;;;;5.77;61.14;96793.48;1725069;82;24752;-88
2022/02/22 00:42:06;;;;;;;;;;;;;;;5.76;61.19;96793.13;1732090;82;22015;-84
2022/02/22 00:44:32;;;;;;;;;;;;;;;5.74;61.24;96799.36;1729237;80;25961;-84
2022/02/22 00:47:00;;;;;;;;;;;;;;;5.72;61.30;96790.41;1721191;80;25203;-86
2022/02/22 00:49:31;;;;;;;;;;;;;;;5.71;61.39;96797.84;1730043;81;20237;-86
2022/02/22 00:51:57;;;;;;;;;;;;;;;5.68;61.48;96807.14;1728043;82;24844;-86
2022/02/22 00:54:23;;;;;;;;;;;;;;;5.68;61.54;96811.50;1734517;81;22032;-86
2022/02/22 00:56:50;;;;;;;;;;;;;;;5.65;61.62;96817.77;1728044;81;26024;-86
2022/02/22 00:59:16;;;;;;;;;;;;;;;5.63;61.70;96823.53;1727910;82;25113;-85
2022/02/22 01:01:42;;;;;;;;;;;;;;;5.62;61.80;96830.16;1725735;82;20338;-85
2022/02/22 01:04:08;;;;;;;;;;;;;;;5.61;61.90;96837.11;1728163;81;25577;-85
2022/02/22 01:06:34;;;;;;;;;;;;;;;5.61;62.01;96844.90;1726140;80;22178;-85
2022/02/22 01:09:03;;;;;;;;;;;;;;;5.62;62.13;96849.62;1725326;82;25973;-85
2022/02/22 01:11:29;;;;;;;;;;;;;;;5.59;62.26;96846.77;1734329;82;25145;-84
2022/02/22 01:13:55;;;;;;;;;;;;;;;5.59;62.39;96848.06;1731721;82;20627;-84
2022/02/22 01:16:21;;;;;;;;;;;;;;;5.59;62.54;96849.83;1723468;82;25567;-84
2022/02/22 01:18:47;;;;;;;;;;;;;;;5.62;62.71;96862.09;1726262;80;21924;-85
2022/02/22 01:21:13;;;;;;;;;;;;;;;5.58;62.87;96861.98;1735201;81;26049;-85
2022/02/22 01:23:40;;;;;;;;;;;;;;;5.60;63.06;96870.95;1728977;81;24515;-84
2022/02/22 01:26:06;;;;;;;;;;;;;;;5.57;63.27;96873.29;1727324;82;20234;-83
2022/02/22 01:28:32;;;;;;;;;;;;;;;5.61;63.52;96875.20;1725819;82;24783;-85
2022/02/22 01:30:58;;;;;;;;;;;;;;;5.57;63.74;96881.55;1724920;81;22010;-85
2022/02/22 01:33:24;;;;;;;;;;;;;;;5.57;64.02;96884.14;1722659;82;25934;-86
2022/02/22 01:35:50;;;;;;;;;;;;;;;5.54;64.27;96883.91;1731174;82;24476;-86
2022/02/22 01:38:16;;;;;;;;;;;;;;;5.50;64.57;96894.64;1735736;82;20171;-87
2022/02/22 01:40:42;;;;;;;;;;;;;;;5.45;64.84;96889.80;1723938;82;24759;-87
2022/02/22 01:43:09;;;;;;;;;;;;;;;5.44;65.16;96886.84;1738678;80;22054;-87
2022/02/22 01:45:36;;;;;;;;;;;;;;;5.43;65.51;96900.27;1741348;80;25756;-88
2022/02/22 01:48:03;;;;;;;;;;;;;;;5.41;65.89;96899.55;1748163;80;24440;-86
2022/02/22 01:50:30;;;;;;;;;;;;;;;5.39;66.27;96904.52;1746794;80;20205;-87
2022/02/22 01:52:57;;;;;;;;;;;;;;;5.35;66.63;96906.48;1752682;79;24735;-86
2022/02/22 01:55:30;;;;;;;;;;;;;;;5.34;67.01;96911.34;1754080;80;22803;-86
2022/02/22 01:57:56;;;;;;;;;;;;;;;5.33;67.42;96920.52;1769571;80;26172;-85
2022/02/22 02:00:22;;;;;;;;;;;;;;;5.31;67.76;96918.50;1763342;78;24530;-87
2022/02/22 02:02:51;;;;;;;;;;;;;;;5.28;68.10;96918.27;1756499;80;20214;-85
2022/02/22 02:05:16;;;;;;;;;;;;;;;5.28;68.45;96922.63;1750777;79;24868;-85
2022/02/22 02:07:44;;;;;;;;;;;;;;;5.28;68.77;96927.81;1752451;81;21971;-85
2022/02/22 02:10:11;;;;;;;;;;;;;;;5.28;69.09;96938.19;1763884;81;26027;-86
2022/02/22 02:12:39;;;;;;;;;;;;;;;5.26;69.39;96934.86;1750650;79;24495;-86
2022/02/22 02:15:07;;;;;;;;;;;;;;;5.25;69.69;96944.87;1745061;80;20347;-87
2022/02/22 02:17:35;;;;;;;;;;;;;;;5.22;69.99;96947.23;1752675;80;24761;-87
2022/02/22 02:20:04;;;;;;;;;;;;;;;5.23;70.28;96957.97;1737569;82;22156;-87
2022/02/22 02:22:30;;;;;;;;;;;;;;;5.21;70.57;96960.30;1747578;80;26004;-87
2022/02/22 02:24:56;;;;;;;;;;;;;;;5.19;70.85;96964.30;1756248;80;24501;-87
2022/02/22 02:27:22;;;;;;;;;;;;;;;5.17;71.15;96970.08;1757197;79;20606;-86
2022/02/22 02:29:59;;;;;;;;;;;;;;;5.20;71.44;96976.80;1755716;80;24769;-86
2022/02/22 02:32:22;;;;;;;;;;;;;;;5.18;71.72;96976.92;1759463;80;21861;-85
2022/02/22 02:34:48;;;;;;;;;;;;;;;5.18;72.00;96993.78;1771214;79;26109;-86
2022/02/22 02:37:14;;;;;;;;;;;;;;;5.16;72.27;96990.45;1762547;80;24442;-87
2022/02/22 02:39:43;;;;;;;;;;;;;;;5.14;72.55;97001.39;1765287;81;20180;-86
2022/02/22 02:42:09;;;;;;;;;;;;;;;5.16;72.82;97011.20;1760731;80;24801;-86
2022/02/22 02:44:36;;;;;;;;;;;;;;;5.14;73.07;97018.25;1766163;80;21935;-86
2022/02/22 02:47:04;;;;;;;;;;;;;;;5.14;73.34;97023.44;1763966;80;26050;-86
2022/02/22 02:49:31;;;;;;;;;;;;;;;5.13;73.57;97022.27;1764967;80;24531;-85
2022/02/22 02:51:57;;;;;;;;;;;;;;;5.09;73.82;97030.72;1763042;80;21315;-85
2022/02/22 02:54:23;;;;;;;;;;;;;;;5.08;74.07;97027.75;1752561;80;24709;-86
2022/02/22 02:56:49;;;;;;;;;;;;;;;5.08;74.36;97029.52;1755628;79;22055;-86
2022/02/22 02:59:15;;;;;;;;;;;;;;;5.08;74.64;97043.31;1757203;80;26210;-86
2022/02/22 03:01:42;;;;;;;;;;;;;;;5.08;74.94;97044.61;1738515;80;20271;-85
2022/02/22 03:04:09;;;;;;;;;;;;;;;5.06;75.18;97045.20;1765314;80;20543;-85
2022/02/22 03:06:39;;;;;;;;;;;;;;;5.05;75.43;97065.58;1775738;80;25581;-85
2022/02/22 03:09:03;;;;;;;;;;;;;;;5.01;75.69;97075.34;1764552;81;21972;-86
2022/02/22 03:11:29;;;;;;;;;;;;;;;4.94;76.03;97092.25;1761698;80;27324;-87
2022/02/22 03:13:55;;;;;;;;;;;;;;;4.86;76.44;97100.16;1769649;79;24417;-87
2022/02/22 03:16:27;;;;;;;;;;;;;;;4.75;76.87;97113.02;1758237;80;20511;-87
2022/02/22 03:18:53;;;;;;;;;;;;;;;4.67;77.27;97122.63;1756898;79;24736;-87
2022/02/22 03:21:19;;;;;;;;;;;;;;;4.62;77.79;97122.11;1763163;79;21906;-87
2022/02/22 03:23:46;;;;;;;;;;;;;;;4.54;78.31;97139.45;1763550;81;26021;-87
2022/02/22 03:26:13;;;;;;;;;;;;;;;4.45;78.78;97136.64;1761976;80;24385;-86
2022/02/22 03:28:40;;;;;;;;;;;;;;;4.37;79.25;97142.77;1764286;80;20214;-87
2022/02/22 03:31:06;;;;;;;;;;;;;;;4.26;79.72;97149.95;1751688;80;20331;-87
2022/02/22 03:33:33;;;;;;;;;;;;;;;4.10;80.18;97136.34;1761123;80;22022;-87
2022/02/22 03:35:59;;;;;;;;;;;;;;;4.19;80.72;97160.36;1756609;79;26044;-88
2022/02/22 03:38:25;;;;;;;;;;;;;;;4.14;81.24;97160.66;1760679;80;24466;-83
2022/02/22 03:40:51;;;;;;;;;;;;;;;4.11;81.78;97164.73;1754120;79;21219;-88
2022/02/22 03:43:17;;;;;;;;;;;;;;;4.11;82.37;97176.84;1750156;80;24796;-86
2022/02/22 03:45:48;;;;;;;;;;;;;;;4.10;82.93;97184.23;1749298;80;21971;-84
2022/02/22 03:48:11;;;;;;;;;;;;;;;4.01;83.52;97185.66;1749399;81;26186;-84
2022/02/22 03:50:37;;;;;;;;;;;;;;;3.94;84.14;97191.31;1741217;80;24541;-84
2022/02/22 03:53:04;;;;;;;;;;;;;;;3.87;84.80;97202.54;1753981;80;20564;-84
2022/02/22 03:55:30;;;;;;;;;;;;;;;3.80;85.43;97212.89;1756915;81;24843;-83
2022/02/22 03:57:56;;;;;;;;;;;;;;;3.74;85.97;97219.74;1755002;80;21962;-84
2022/02/22 04:00:24;;;;;;;;;;;;;;;3.73;86.53;97226.67;1760565;79;26070;-83
2022/02/22 04:02:50;;;;;;;;;;;;;;;3.71;87.02;97231.09;1760774;79;24605;-84
2022/02/22 04:05:19;;;;;;;;;;;;;;;3.71;87.48;97237.56;1760727;80;20169;-84
2022/02/22 04:07:45;;;;;;;;;;;;;;;3.68;87.86;97239.52;1757619;79;24777;-83
2022/02/22 04:10:11;;;;;;;;;;;;;;;3.69;88.21;97252.83;1752592;80;22187;-83
2022/02/22 04:12:37;;;;;;;;;;;;;;;3.68;88.51;97257.17;1746470;80;26621;-85
2022/02/22 04:15:04;;;;;;;;;;;;;;;3.70;88.82;97253.20;1758292;79;24721;-84
2022/02/22 04:17:38;;;;;;;;;;;;;;;3.69;89.06;97261.42;1759981;79;20315;-85
2022/02/22 04:20:09;;;;;;;;;;;;;;;3.67;89.23;97260.67;1761364;80;24729;-85
2022/02/22 04:22:32;;;;;;;;;;;;;;;3.66;89.42;97270.64;1755754;79;22055;-85
2022/02/22 04:24:58;;;;;;;;;;;;;;;3.66;89.55;97274.53;1754663;79;26011;-88
2022/02/22 04:27:24;;;;;;;;;;;;;;;3.67;89.70;97272.31;1759853;80;24380;-88
2022/02/22 04:29:50;;;;;;;;;;;;;;;3.65;89.79;97273.35;1758404;79;20221;-83
2022/02/22 04:32:17;;;;;;;;;;;;;;;3.63;89.87;97278.61;1763305;80;24747;-83
2022/02/22 04:34:43;;;;;;;;;;;;;;;3.62;89.98;97285.16;1755907;80;20401;-83
2022/02/22 04:37:15;;;;;;;;;;;;;;;3.56;89.98;97291.98;1757929;79;26161;-83
2022/02/22 04:39:39;;;;;;;;;;;;;;;3.56;90.05;97298.00;1755240;80;24431;-83
2022/02/22 04:42:06;;;;;;;;;;;;;;;3.58;90.15;97305.22;1759978;80;20143;-83
2022/02/22 04:44:34;;;;;;;;;;;;;;;3.59;90.28;97308.18;1726674;81;24744;-87
2022/02/22 04:47:02;;;;;;;;;;;;;;;3.61;90.39;97315.83;1704681;82;21996;-85
2022/02/22 04:49:28;;;;;;;;;;;;;;;3.63;90.49;97321.75;1725712;82;26124;-82
2022/02/22 04:51:54;;;;;;;;;;;;;;;3.65;90.62;97327.22;1708840;82;24486;-82
2022/02/22 04:54:20;;;;;;;;;;;;;;;3.68;90.74;97333.48;1707512;82;20292;-82
2022/02/22 04:56:46;;;;;;;;;;;;;;;3.68;90.83;97335.23;1759635;80;20309;-81
2022/02/22 04:59:12;;;;;;;;;;;;;;;3.68;90.87;97340.41;1759659;80;22027;-82
2022/02/22 05:01:39;;;;;;;;;;;;;;;3.70;90.97;97342.46;1760405;80;26052;-82
2022/02/22 05:04:05;;;;;;;;;;;;;;;3.73;91.10;97345.69;1754499;79;25293;-82
2022/02/22 05:06:31;;;;;;;;;;;;;;;3.73;91.15;97340.51;1755933;80;20653;-82
2022/02/22 05:08:57;;;;;;;;;;;;;;;3.75;91.23;97348.19;1759775;79;24753;-83
2022/02/22 05:11:23;;;;;;;;;;;;;;;3.76;91.28;97347.27;1760694;80;21935;-83
2022/02/22 05:13:50;;;;;;;;;;;;;;;3.78;91.35;97351.41;1755410;80;26124;-82
2022/02/22 05:16:16;;;;;;;;;;;;;;;3.78;91.39;97351.41;1757435;79;24687;-82
2022/02/22 05:18:42;;;;;;;;;;;;;;;3.80;91.43;97352.62;1752520;80;20205;-82
2022/02/22 05:21:08;;;;;;;;;;;;;;;3.79;91.43;97356.13;1761207;79;25421;-82
2022/02/22 05:23:35;;;;;;;;;;;;;;;3.77;91.44;97365.27;1757855;80;20394;-82
2022/02/22 05:26:02;;;;;;;;;;;;;;;3.74;91.45;97360.29;1758064;80;26038;-84
2022/02/22 05:28:28;;;;;;;;;;;;;;;3.69;91.42;97366.20;1759497;80;24522;-83
2022/02/22 05:30:54;;;;;;;;;;;;;;;3.65;91.40;97371.66;1764573;79;20362;-82
2022/02/22 05:33:21;;;;;;;;;;;;;;;3.62;91.41;97368.77;1760445;80;24965;-83
2022/02/22 05:35:48;;;;;;;;;;;;;;;3.63;91.50;97372.20;1754180;80;22057;-83
2022/02/22 05:38:14;;;;;;;;;;;;;;;3.66;91.65;97383.18;1758924;80;26074;-83
2022/02/22 05:40:40;;;;;;;;;;;;;;;3.70;91.83;97379.52;1763671;80;24523;-83
2022/02/22 05:43:07;;;;;;;;;;;;;;;3.69;91.99;97381.72;1753122;80;20213;-84
2022/02/22 05:45:33;;;;;;;;;;;;;;;3.71;92.11;97394.09;1757348;79;24872;-83
2022/02/22 05:48:00;;;;;;;;;;;;;;;3.73;92.26;97397.89;1753552;80;22116;-82
2022/02/22 05:50:26;;;;;;;;;;;;;;;3.76;92.40;97404.19;1755545;80;25971;-82
2022/02/22 05:52:55;;;;;;;;;;;;;;;3.81;92.56;97404.75;1751171;80;25250;-82
2022/02/22 05:55:21;;;;;;;;;;;;;;;3.88;92.75;97407.33;1760296;79;20663;-82
2022/02/22 05:57:50;;;;;;;;;;;;;;;3.91;92.90;97411.50;1762004;80;24715;-82
2022/02/22 06:00:17;;;;;;;;;;;;;;;3.92;92.99;97414.47;1757322;79;22227;-83
2022/02/22 06:02:43;;;;;;;;;;;;;;;3.91;93.01;97422.69;1756097;80;25970;-83
2022/02/22 06:05:09;;;;;;;;;;;;;;;3.90;93.06;97424.90;1757413;80;24477;-83
2022/02/22 06:07:36;;;;;;;;;;;;;;;3.91;93.08;97434.80;1757223;80;20274;-83
2022/02/22 06:10:03;;;;;;;;;;;;;;;3.92;93.14;97430.00;1754623;79;24778;-83
2022/02/22 06:12:29;;;;;;;;;;;;;;;3.92;93.21;97432.13;1761867;80;21975;-83
2022/02/22 06:14:56;;;;;;;;;;;;;;;3.93;93.30;97431.17;1759385;80;26178;-83
2022/02/22 06:17:23;;;;;;;;;;;;;;;3.90;93.36;97432.66;1754880;80;24607;-83
2022/02/22 06:19:50;;;;;;;;;;;;;;;3.92;93.44;97436.01;1759639;79;20211;-83
2022/02/22 06:22:16;;;;;;;;;;;;;;;3.96;93.50;97436.19;1753456;80;24814;-84
2022/02/22 06:24:42;;;;;;;;;;;;;;;3.99;93.63;97434.70;1759190;80;21963;-84
2022/02/22 06:27:08;;;;;;;;;;;;;;;4.07;93.81;97440.72;1758068;80;25921;-83
2022/02/22 06:29:34;;;;;;;;;;;;;;;4.15;94.01;97450.14;1757744;80;24483;-83
2022/02/22 06:32:00;;;;;;;;;;;;;;;4.20;94.17;97450.24;1756022;80;20152;-84
2022/02/22 06:34:26;;;;;;;;;;;;;;;4.25;94.25;97452.58;1758823;80;24815;-83
2022/02/22 06:36:53;;;;;;;;;;;;;;;4.28;94.25;97456.73;1754101;80;22044;-83
2022/02/22 06:39:19;;;;;;;;;;;;;;;4.28;94.25;97458.86;1751025;80;26007;-83
2022/02/22 06:41:45;;;;;;;;;;;;;;;4.28;94.25;97465.79;1754954;80;24421;-83
2022/02/22 06:44:11;;;;;;;;;;;;;;;4.29;94.28;97477.36;1757956;80;20222;-83
2022/02/22 06:46:37;;;;;;;;;;;;;;;4.32;94.32;97475.03;1757782;80;24882;-84
2022/02/22 06:49:03;;;;;;;;;;;;;;;4.33;94.40;97473.66;1757221;80;22609;-83
2022/02/22 06:51:29;;;;;;;;;;;;;;;4.34;94.49;97483.09;1746212;80;26087;-83
2022/02/22 06:54:06;;;;;;;;;;;;;;;4.33;94.48;97482.72;1761520;80;24709;-84
2022/02/22 06:56:32;;;;;;;;;;;;;;;4.33;94.47;97484.02;1755505;80;20329;-84
2022/02/22 06:59:02;;;;;;;;;;;;;;;4.34;94.47;97486.98;1755848;79;25513;-84
2022/02/22 07:01:28;;;;;;;;;;;;;;;4.35;94.49;97485.22;1754101;80;21803;-83
2022/02/22 07:03:54;;;;;;;;;;;;;;;4.37;94.54;97488.08;1761122;80;25910;-83
2022/02/22 07:06:20;;;;;;;;;;;;;;;4.38;94.57;97488.45;1750661;81;24422;-83
2022/02/22 07:08:46;;;;;;;;;;;;;;;4.37;94.53;97495.84;1759535;80;20370;-88
2022/02/22 07:11:13;;;;;;;;;;;;;;;4.38;94.52;97498.81;1750223;80;24844;-88
2022/02/22 07:13:41;;;;;;;;;;;;;;;4.41;94.55;97506.88;1750298;80;21471;-87
2022/02/22 07:16:07;;;;;;;;;;;;;;;4.45;94.62;97504.00;1752805;80;25732;-87
2022/02/22 07:18:34;;;;;;;;;;;;;;;4.48;94.66;97510.28;1750459;81;24401;-87
2022/02/22 07:21:00;;;;;;;;;;;;;;;4.52;94.71;97510.49;1745704;81;20216;-87
2022/02/22 07:23:28;;;;;;;;;;;;;;;4.55;94.75;97514.18;1750460;81;24709;-87
2022/02/22 07:26:02;;;;;;;;;;;;;;;4.62;94.88;97512.89;1752823;81;22724;-86
2022/02/22 07:28:28;;;;;;;;;;;;;;;4.65;94.88;97522.22;1752165;81;26057;-88
2022/02/22 07:30:54;;;;;;;;;;;;;;;4.68;94.94;97516.87;1751344;80;24599;-84
2022/02/22 07:33:20;;;;;;;;;;;;;;;4.71;94.98;97527.50;1754534;80;20344;-87
2022/02/22 07:35:46;;;;;;;;;;;;;;;4.74;95.08;97529.46;1757227;80;24709;-84
2022/02/22 07:38:12;;;;;;;;;;;;;;;4.77;95.12;97534.44;1757401;80;21972;-83
2022/02/22 07:40:38;;;;;;;;;;;;;;;4.75;95.14;97533.69;1755727;80;25940;-87
2022/02/22 07:43:04;;;;;;;;;;;;;;;4.75;95.17;97540.17;1758732;80;24384;-87
2022/02/22 07:45:30;;;;;;;;;;;;;;;4.75;95.20;97549.70;1755213;79;20567;-87
2022/02/22 07:47:57;;;;;;;;;;;;;;;4.69;95.16;97547.02;1751189;80;24795;-87
2022/02/22 07:50:23;;;;;;;;;;;;;;;4.64;95.11;97551.19;1745773;81;22066;-88
2022/02/22 07:52:51;;;;;;;;;;;;;;;4.66;95.17;97560.17;1748088;79;21208;-88
2022/02/22 07:55:17;;;;;;;;;;;;;;;4.72;95.36;97561.10;1731118;81;24478;-87
2022/02/22 07:57:44;;;;;;;;;;;;;;;4.79;95.57;97555.09;1723857;82;20208;-84
2022/02/22 08:00:10;;;;;;;;;;;;;;;4.83;95.67;97553.52;1729357;82;24769;-85
2022/02/22 08:02:37;;;;;;;;;;;;;;;4.90;95.77;97555.27;1721100;82;23204;-85
2022/02/22 08:05:03;;;;;;;;;;;;;;;4.99;95.99;97552.11;1727969;82;26603;-85
2022/02/22 08:07:29;;;;;;;;;;;;;;;5.04;96.09;97559.14;1729157;80;24642;-85
2022/02/22 08:09:55;;;;;;;;;;;;;;;5.08;96.17;97560.61;1725177;81;21311;-85
2022/02/22 08:12:21;;;;;;;;;;;;;;;5.09;96.18;97568.76;1729777;82;25614;-84
2022/02/22 08:14:47;;;;;;;;;;;;;;;5.15;96.20;97573.57;1728273;80;22019;-85
2022/02/22 08:17:20;;;;;;;;;;;;;;;5.16;96.13;97579.13;1728578;82;26962;-84
2022/02/22 08:19:46;;;;;;;;;;;;;;;5.12;95.94;97600.17;1725122;82;24433;-85
2022/02/22 08:22:12;;;;;;;;;;;;;;;5.12;95.81;97600.17;1726688;82;20206;-85
2022/02/22 08:24:38;;;;;;;;;;;;;;;5.11;95.72;97609.70;1728708;80;24738;-85
2022/02/22 08:27:04;;;;;;;;;;;;;;;5.16;95.68;97609.42;1728465;82;22042;-84
2022/02/22 08:29:31;;;;;;;;;;;;;;;5.14;95.57;97609.97;1735331;82;26015;-84
2022/02/22 08:31:59;;;;;;;;;;;;;;;5.14;95.41;97614.69;1737646;80;21446;-84
2022/02/22 08:34:25;;;;;;;;;;;;;;;5.21;95.38;97622.94;1730316;80;20295;-83
2022/02/22 08:36:51;;;;;;;;;;;;;;;5.29;95.47;97622.82;1747441;81;24802;-84
2022/02/22 08:39:17;;;;;;;;;;;;;;;5.34;95.45;97625.16;1730071;81;20231;-84
2022/02/22 08:41:43;;;;;;;;;;;;;;;5.40;95.51;97631.27;1727345;81;25954;-83
2022/02/22 08:44:13;;;;;;;;;;;;;;;5.41;95.43;97629.02;1728126;82;24412;-82
2022/02/22 08:46:38;;;;;;;;;;;;;;;5.39;95.26;97630.89;1730650;81;20222;-83
2022/02/22 08:49:08;;;;;;;;;;;;;;;5.35;94.99;97635.88;1749865;80;20814;-83
2022/02/22 08:51:36;;;;;;;;;;;;;;;5.34;94.74;97641.56;1746333;80;22143;-83
2022/02/22 08:54:04;;;;;;;;;;;;;;;5.38;94.69;97646.09;1757571;80;26020;-82
2022/02/22 08:56:31;;;;;;;;;;;;;;;5.40;94.69;97649.44;1763270;80;25250;-87
2022/02/22 08:58:57;;;;;;;;;;;;;;;5.40;94.66;97652.83;1761117;79;20222;-87
2022/02/22 09:01:24;;;;;;;;;;;;;;;5.41;94.56;97659.69;1754905;80;24950;-88
2022/02/22 09:03:50;;;;;;;;;;;;;;;5.40;94.48;97654.63;1759385;80;21550;-84
2022/02/22 09:06:16;;;;;;;;;;;;;;;5.44;94.48;97661.28;1762789;79;20973;-83
2022/02/22 09:08:42;;;;;;;;;;;;;;;5.47;94.53;97664.51;1757230;79;24428;-84
2022/02/22 09:11:08;;;;;;;;;;;;;;;5.56;94.60;97673.97;1755905;79;20314;-84
2022/02/22 09:13:35;;;;;;;;;;;;;;;5.63;94.70;97670.04;1755304;80;25640;-84
2022/02/22 09:16:01;;;;;;;;;;;;;;;5.66;94.74;97662.08;1756213;80;21952;-88
2022/02/22 09:18:27;;;;;;;;;;;;;;;5.72;94.77;97656.51;1754533;80;26666;-83
2022/02/22 09:20:53;;;;;;;;;;;;;;;5.78;94.79;97661.32;1765459;80;24834;-83
2022/02/22 09:23:19;;;;;;;;;;;;;;;5.80;94.76;97660.28;1763413;78;20336;-88
2022/02/22 09:25:45;;;;;;;;;;;;;;;5.86;94.71;97666.84;1758934;78;24744;-88
2022/02/22 09:28:12;;;;;;;;;;;;;;;5.86;94.62;97662.49;1755932;80;22023;-87
2022/02/22 09:30:38;;;;;;;;;;;;;;;5.92;94.57;97673.45;1756711;79;25828;-87
2022/02/22 09:33:06;;;;;;;;;;;;;;;5.99;94.58;97676.87;1763549;80;25083;-87
2022/02/22 09:35:33;;;;;;;;;;;;;;;6.02;94.58;97671.47;1762083;80;20278;-87
2022/02/22 09:37:59;;;;;;;;;;;;;;;6.09;94.60;97672.75;1763931;80;24812;-88
2022/02/22 09:40:26;;;;;;;;;;;;;;;6.19;94.67;97671.69;1754570;80;22226;-87
2022/02/22 09:42:52;;;;;;;;;;;;;;;6.27;94.76;97670.25;1756389;80;26743;-87
2022/02/22 09:45:20;;;;;;;;;;;;;;;6.27;94.60;97674.64;1756525;80;24588;-87
2022/02/22 09:47:46;;;;;;;;;;;;;;;6.26;94.36;97673.80;1760079;79;20153;-87
2022/02/22 09:50:14;;;;;;;;;;;;;;;6.28;94.17;97684.08;1757591;80;24868;-87
2022/02/22 09:52:41;;;;;;;;;;;;;;;6.27;93.95;97670.25;1754073;79;21991;-87
2022/02/22 09:55:08;;;;;;;;;;;;;;;6.30;93.79;97664.88;1761738;80;25975;-87
2022/02/22 09:57:34;;;;;;;;;;;;;;;6.29;93.56;97674.06;1761123;80;24400;-87
2022/02/22 10:00:00;;;;;;;;;;;;;;;6.27;93.30;97683.24;1757806;80;20322;-87
2022/02/22 10:02:40;;;;;;;;;;;;;;;6.29;93.18;97677.95;1759713;80;24966;-87
2022/02/22 10:05:17;;;;;;;;;;;;;;;6.35;93.18;97690.55;1760575;80;21991;-87
2022/02/22 10:07:47;;;;;;;;;;;;;;;6.30;93.04;97696.52;1758528;81;26195;-84
2022/02/22 10:10:15;;;;;;;;;;;;;;;6.28;92.93;97691.87;1756305;80;24360;-87
2022/02/22 10:12:41;;;;;;;;;;;;;;;6.32;92.92;97696.42;1761777;80;20472;-87
2022/02/22 10:15:09;;;;;;;;;;;;;;;6.41;93.11;97693.22;1758489;80;24730;-82
2022/02/22 10:17:37;;;;;;;;;;;;;;;6.50;93.25;97695.21;1754829;80;22307;-82
2022/02/22 10:20:04;;;;;;;;;;;;;;;6.55;93.38;97691.37;1755879;80;26043;-83
2022/02/22 10:22:31;;;;;;;;;;;;;;;6.58;93.39;97693.80;1758697;80;24678;-83
2022/02/22 10:25:07;;;;;;;;;;;;;;;6.55;93.23;97692.68;1756244;80;20231;-83
2022/02/22 10:27:41;;;;;;;;;;;;;;;6.49;92.95;97692.27;1766645;79;24735;-82
2022/02/22 10:30:15;;;;;;;;;;;;;;;6.36;92.49;97703.92;1755670;80;22001;-82
2022/02/22 10:32:42;;;;;;;;;;;;;;;6.28;92.07;97713.95;1746338;80;25996;-82
2022/02/22 10:35:08;;;;;;;;;;;;;;;6.22;91.77;97711.28;1758421;80;24508;-82
2022/02/22 10:37:34;;;;;;;;;;;;;;;6.16;91.49;97716.90;1753599;80;20521;-87
2022/02/22 10:40:02;;;;;;;;;;;;;;;6.12;91.29;97721.90;1751689;80;24778;-87
2022/02/22 10:42:35;;;;;;;;;;;;;;;6.07;91.16;97716.16;1759226;80;20346;-87
2022/02/22 10:45:03;;;;;;;;;;;;;;;6.01;91.10;97729.53;1756043;79;26169;-87
2022/02/22 10:47:30;;;;;;;;;;;;;;;6.00;91.16;97738.25;1760375;79;24530;-87
2022/02/22 10:49:58;;;;;;;;;;;;;;;5.95;91.27;97744.19;1750760;80;20331;-87
2022/02/22 10:52:31;;;;;;;;;;;;;;;5.92;91.43;97748.30;1750785;80;25755;-87
2022/02/22 10:54:58;;;;;;;;;;;;;;;5.89;91.67;97751.90;1734775;81;21945;-87
2022/02/22 10:57:24;;;;;;;;;;;;;;;5.92;92.03;97753.95;1754635;80;25945;-88
2022/02/22 10:59:50;;;;;;;;;;;;;;;5.98;92.54;97747.08;1749018;81;24470;-88
2022/02/22 11:02:16;;;;;;;;;;;;;;;6.00;93.02;97743.44;1755474;80;20510;-83
2022/02/22 11:04:43;;;;;;;;;;;;;;;6.04;93.38;97744.94;1750293;81;24825;-86
2022/02/22 11:07:12;;;;;;;;;;;;;;;6.13;93.92;97746.95;1746775;80;21997;-82
2022/02/22 11:09:40;;;;;;;;;;;;;;;6.17;94.30;97744.98;1756070;81;26572;-82
2022/02/22 11:12:08;;;;;;;;;;;;;;;6.12;94.50;97749.17;1752990;81;24442;-82
2022/02/22 11:14:35;;;;;;;;;;;;;;;6.04;94.63;97750.13;1747579;81;20276;-81
2022/02/22 11:17:03;;;;;;;;;;;;;;;5.93;94.71;97752.56;1750498;80;24749;-88
2022/02/22 11:19:36;;;;;;;;;;;;;;;5.87;94.82;97754.23;1750953;80;22689;-88
2022/02/22 11:22:23;;;;;;;;;;;;;;;5.80;94.96;97751.61;1750046;81;26063;-89
2022/02/22 11:24:58;;;;;;;;;;;;;;;5.83;95.32;97750.14;1749436;81;24461;-89
2022/02/22 11:27:26;;;;;;;;;;;;;;;5.89;95.92;97748.00;1747803;80;20212;-88
2022/02/22 11:29:56;;;;;;;;;;;;;;;5.96;96.50;97744.56;1752551;80;24806;-88
2022/02/22 11:32:23;;;;;;;;;;;;;;;6.02;97.05;97739.00;1744641;81;22080;-87
2022/02/22 11:34:55;;;;;;;;;;;;;;;6.10;97.63;97739.36;1752572;81;26720;-87
2022/02/22 11:37:24;;;;;;;;;;;;;;;6.16;98.08;97748.53;1749656;81;24415;-87
2022/02/22 11:39:55;;;;;;;;;;;;;;;6.23;98.62;97742.83;1732081;81;20230;-87
2022/02/22 11:42:23;;;;;;;;;;;;;;;6.36;99.20;97742.06;1752171;80;25452;-88
2022/02/22 11:45:11;;;;;;;;;;;;;;;6.44;99.61;97744.98;1753273;81;22029;-88
2022/02/22 11:47:47;;;;;;;;;;;;;;;6.50;99.95;97750.63;1749699;81;26019;-87
2022/02/22 11:50:17;;;;;;;;;;;;;;;6.56;100.00;97753.30;1739931;81;24646;-87
2022/02/22 11:52:45;;;;;;;;;;;;;;;6.54;100.00;97756.48;1728543;82;20511;-88
2022/02/22 11:55:13;;;;;;;;;;;;;;;6.53;100.00;97758.72;1737717;80;24762;-87
2022/02/22 11:57:43;;;;;;;;;;;;;;;6.52;100.00;97781.73;1734508;80;21953;-88
2022/02/22 12:00:13;;;;;;;;;;;;;;;6.42;99.86;97827.44;1730397;82;26592;-87
2022/02/22 12:02:45;;;;;;;;;;;;;;;5.87;99.03;97851.61;1738953;82;24400;-89
2022/02/22 12:05:27;;;;;;;;;;;;;;;5.31;98.04;97852.32;1704392;82;20263;-87
2022/02/22 12:08:00;;;;;;;;;;;;;;;4.81;97.14;97852.14;1669976;84;24765;-87
2022/02/22 12:10:28;;;;;;;;;;;;;;;4.48;96.53;97851.41;1685157;85;21964;-84
2022/02/22 12:13:07;;;;;;;;;;;;;;;4.19;96.16;97858.19;1680112;84;26750;-84
2022/02/22 12:15:34;;;;;;;;;;;;;;;4.03;96.03;97861.22;1683620;85;24681;-87
2022/02/22 12:18:00;;;;;;;;;;;;;;;3.89;96.09;97861.09;1678149;84;20175;-87
2022/02/22 12:20:27;;;;;;;;;;;;;;;3.83;96.26;97863.53;1680738;84;24832;-87
2022/02/22 12:22:53;;;;;;;;;;;;;;;3.78;96.55;97866.37;1679756;84;21948;-87
2022/02/22 12:25:21;;;;;;;;;;;;;;;3.77;96.91;97869.86;1680966;84;25993;-86
2022/02/22 12:27:47;;;;;;;;;;;;;;;3.78;97.32;97868.12;1681057;84;25256;-86
2022/02/22 12:30:13;;;;;;;;;;;;;;;3.77;97.72;97866.44;1680595;84;20581;-87
2022/02/22 12:32:41;;;;;;;;;;;;;;;3.81;98.17;97865.39;1681377;84;20283;-86
2022/02/22 12:35:08;;;;;;;;;;;;;;;3.79;98.57;97869.80;1680561;84;21970;-87
2022/02/22 12:37:41;;;;;;;;;;;;;;;3.83;98.97;97866.58;1681633;85;26137;-86
2022/02/22 12:40:17;;;;;;;;;;;;;;;3.83;99.32;97871.30;1681415;85;24565;-86
2022/02/22 12:42:48;;;;;;;;;;;;;;;3.86;99.72;97870.31;1681334;85;20505;-86
2022/02/22 12:45:15;;;;;;;;;;;;;;;3.90;100.00;97869.23;1681978;84;24821;-85
2022/02/22 12:47:42;;;;;;;;;;;;;;;3.96;100.00;97870.21;1683569;84;21899;-86
2022/02/22 12:50:09;;;;;;;;;;;;;;;4.00;100.00;97870.42;1699901;82;26164;-87
2022/02/22 12:52:35;;;;;;;;;;;;;;;4.03;100.00;97873.70;1705907;83;24530;-83
2022/02/22 12:55:06;;;;;;;;;;;;;;;4.06;100.00;97861.88;1708153;83;20188;-88
2022/02/22 12:57:31;;;;;;;;;;;;;;;4.11;100.00;97868.94;1704617;83;25538;-88